Time;durP1;ratioP1;P1;durP2;ratioP2;P2;SDS_P1;SDS_P2;PMS_P1;PMS_P2;Temp;Humidity;BMP_temperature;BMP_pressure;BME280_temperature;BME280_humidity;BME280_pressure;Samples;Min_cycle;Max_cycle;Signal;HPM_P1;HPM_P2
2022/05/16 00:01:41;;;;;;;129.07;118.57;;;17.70;57.70;;;;;;5054163;28;20052;-71
2022/05/16 00:04:08;;;;;;;130.52;119.70;;;17.60;58.30;;;;;;5036453;28;20521;-71
2022/05/16 00:06:35;;;;;;;128.68;117.63;;;17.50;58.60;;;;;;5036172;28;20060;-71
2022/05/16 00:09:02;;;;;;;126.85;116.45;;;17.50;58.70;;;;;;5036389;28;20056;-71
2022/05/16 00:11:31;;;;;;;127.60;116.82;;;17.40;58.80;;;;;;5054000;28;20057;-71
2022/05/16 00:13:59;;;;;;;126.43;115.97;;;17.40;59.20;;;;;;5036145;28;20131;-71
2022/05/16 00:16:25;;;;;;;126.03;115.32;;;17.30;59.40;;;;;;5054065;28;20547;-71
2022/05/16 00:18:52;;;;;;;124.93;114.43;;;17.30;59.40;;;;;;5036443;28;20054;-71
2022/05/16 00:21:20;;;;;;;129.70;119.03;;;17.30;59.70;;;;;;5036083;28;20512;-71
2022/05/16 00:23:47;;;;;;;133.93;123.05;;;17.20;59.80;;;;;;5019662;28;20452;-71
2022/05/16 00:26:14;;;;;;;129.57;119.00;;;17.20;60.10;;;;;;5036275;28;20041;-71
2022/05/16 00:28:42;;;;;;;127.35;116.30;;;17.20;60.30;;;;;;5053437;28;20494;-71
2022/05/16 00:31:09;;;;;;;130.20;119.70;;;17.10;60.40;;;;;;5036039;28;20052;-71
2022/05/16 00:33:36;;;;;;;127.07;116.57;;;17.10;60.60;;;;;;5036121;28;20615;-71
2022/05/16 00:36:04;;;;;;;125.60;115.18;;;17.10;60.90;;;;;;5053781;28;20081;-71
2022/05/16 00:38:31;;;;;;;125.97;115.47;;;17.00;60.80;;;;;;5053138;28;20057;-71
2022/05/16 00:41:00;;;;;;;126.18;115.57;;;17.00;60.70;;;;;;5019161;28;20052;-71
2022/05/16 00:43:46;;;;;;;126.00;115.70;;;17.00;61.20;;;;;;5044430;28;20133;-71
2022/05/16 00:46:13;;;;;;;125.78;114.93;;;16.90;60.90;;;;;;5016884;28;20056;-71
2022/05/16 00:48:40;;;;;;;125.32;114.78;;;16.90;61.40;;;;;;5016011;28;20054;-71
2022/05/16 00:51:09;;;;;;;125.65;114.90;;;16.90;61.40;;;;;;5019246;28;20630;-71
2022/05/16 00:53:36;;;;;;;127.13;116.25;;;16.90;61.80;;;;;;5025872;28;20446;-71
2022/05/16 00:56:03;;;;;;;123.93;113.32;;;16.90;62.10;;;;;;5030190;28;20057;-71
2022/05/16 00:58:31;;;;;;;124.35;114.05;;;16.80;62.20;;;;;;5007304;28;20052;-71
2022/05/16 01:00:59;;;;;;;123.78;113.22;;;16.80;62.50;;;;;;5052065;28;20052;-71
2022/05/16 01:06:10;;;;;;;125.65;115.20;;;16.60;62.90;;;;;;5035685;28;20060;-71
2022/05/16 01:08:43;;;;;;;127.07;116.47;;;16.50;62.80;;;;;;5035579;28;20523;-71
2022/05/16 01:11:14;;;;;;;125.22;114.68;;;16.50;63.10;;;;;;5035139;28;20582;-71
2022/05/16 01:13:41;;;;;;;129.68;118.93;;;16.50;63.20;;;;;;5053165;28;20057;-71
2022/05/16 01:16:10;;;;;;;124.65;113.70;;;16.40;63.50;;;;;;5035214;28;20476;-71
2022/05/16 01:18:37;;;;;;;125.50;114.80;;;16.40;63.50;;;;;;5037246;28;20050;-71
2022/05/16 01:21:17;;;;;;;124.43;113.95;;;16.40;63.80;;;;;;5052696;28;20053;-71
2022/05/16 01:23:49;;;;;;;123.82;113.03;;;16.40;63.80;;;;;;5034941;28;20056;-71
2022/05/16 01:26:20;;;;;;;122.00;111.70;;;16.40;64.00;;;;;;5024001;28;20407;-71
2022/05/16 01:28:47;;;;;;;125.22;114.75;;;16.30;63.90;;;;;;5044452;28;20053;-71
2022/05/16 01:31:14;;;;;;;125.25;114.65;;;16.30;64.20;;;;;;5035015;28;20049;-71
2022/05/16 01:33:41;;;;;;;124.93;114.32;;;16.20;64.60;;;;;;5035308;28;20119;-71
2022/05/16 01:36:08;;;;;;;125.05;114.47;;;16.20;64.70;;;;;;5034658;28;20056;-71
2022/05/16 01:38:35;;;;;;;124.70;114.03;;;16.10;65.00;;;;;;5035257;28;20557;-71
2022/05/16 01:41:06;;;;;;;125.20;114.60;;;16.00;65.50;;;;;;5052326;28;20057;-71
2022/05/16 01:43:36;;;;;;;125.35;114.35;;;15.90;65.80;;;;;;5035163;28;20103;-71
2022/05/16 01:46:03;;;;;;;123.10;112.53;;;15.90;66.10;;;;;;5052583;28;20045;-71
2022/05/16 01:48:31;;;;;;;124.90;114.20;;;15.80;66.20;;;;;;5034935;28;20051;-71
2022/05/16 01:50:59;;;;;;;125.25;114.45;;;15.80;66.60;;;;;;5052971;28;20515;-71
2022/05/16 01:53:27;;;;;;;125.40;114.68;;;15.70;66.80;;;;;;5034309;28;20046;-71
2022/05/16 01:55:54;;;;;;;122.93;112.28;;;15.60;67.30;;;;;;5035044;28;20050;-71
2022/05/16 01:58:23;;;;;;;123.20;112.70;;;15.60;67.40;;;;;;5052591;28;20435;-71
2022/05/16 02:00:51;;;;;;;123.00;112.32;;;15.60;67.70;;;;;;5034509;28;20120;-71
2022/05/16 02:03:18;;;;;;;122.78;112.07;;;15.60;67.90;;;;;;5052227;28;20050;-71
2022/05/16 02:05:46;;;;;;;123.88;113.03;;;15.50;68.00;;;;;;5034260;28;20519;-71
2022/05/16 02:08:14;;;;;;;129.25;118.15;;;15.50;68.30;;;;;;5051628;28;20058;-71
2022/05/16 02:10:42;;;;;;;127.13;116.43;;;15.40;68.80;;;;;;5034476;28;20042;-71
2022/05/16 02:13:10;;;;;;;129.98;118.75;;;15.40;69.30;;;;;;5034322;28;20052;-71
2022/05/16 02:15:41;;;;;;;123.45;112.88;;;15.30;69.20;;;;;;5034430;28;20551;-71
2022/05/16 02:18:08;;;;;;;122.35;111.30;;;15.40;69.50;;;;;;5052138;28;20053;-71
2022/05/16 02:20:36;;;;;;;122.50;111.80;;;15.30;69.60;;;;;;5052368;28;20048;-71
2022/05/16 02:25:50;;;;;;;121.32;110.68;;;15.30;69.80;;;;;;5034231;28;20104;-71
2022/05/16 02:28:19;;;;;;;121.72;111.03;;;15.30;70.00;;;;;;5051961;28;20079;-71
2022/05/16 02:30:47;;;;;;;121.07;110.38;;;15.30;70.10;;;;;;5052286;28;20111;-71
2022/05/16 02:33:17;;;;;;;120.57;110.05;;;15.20;70.30;;;;;;5017792;28;20060;-71
2022/05/16 02:35:45;;;;;;;121.85;110.93;;;15.20;70.40;;;;;;5034173;28;20688;-71
2022/05/16 02:38:14;;;;;;;119.90;109.43;;;15.20;70.50;;;;;;5034169;28;20060;-71
2022/05/16 02:40:42;;;;;;;121.15;110.53;;;15.10;70.80;;;;;;5052104;28;20060;-71
2022/05/16 02:43:09;;;;;;;121.18;110.43;;;15.10;70.90;;;;;;5034199;28;20049;-71
2022/05/16 02:45:36;;;;;;;121.22;110.80;;;15.00;71.10;;;;;;5033908;28;20052;-71
2022/05/16 02:48:06;;;;;;;122.20;111.70;;;15.00;71.30;;;;;;5051457;28;20132;-71
2022/05/16 02:50:33;;;;;;;120.90;110.65;;;14.90;71.60;;;;;;5051417;28;20549;-71
2022/05/16 02:53:00;;;;;;;120.38;109.50;;;14.90;71.70;;;;;;5033476;28;20412;-71
2022/05/16 02:55:27;;;;;;;121.00;110.43;;;14.90;71.80;;;;;;5033402;28;20129;-71
2022/05/16 02:57:54;;;;;;;121.97;111.60;;;14.90;71.80;;;;;;5032911;28;20129;-71
2022/05/16 03:00:20;;;;;;;124.75;114.13;;;14.80;71.90;;;;;;5016503;28;20048;-71
2022/05/16 03:02:48;;;;;;;120.10;109.60;;;14.80;72.00;;;;;;5033546;28;20651;-71
2022/05/16 03:05:16;;;;;;;121.03;109.97;;;14.80;72.10;;;;;;5051055;28;20134;-71
2022/05/16 03:07:43;;;;;;;120.38;109.50;;;14.80;72.20;;;;;;5032988;28;20150;-71
2022/05/16 03:10:15;;;;;;;120.38;109.55;;;14.80;72.30;;;;;;5051130;28;20053;-71
2022/05/16 03:12:43;;;;;;;121.50;110.80;;;14.80;72.20;;;;;;5033396;28;20050;-71
2022/05/16 03:15:11;;;;;;;118.80;108.40;;;14.70;72.20;;;;;;5034128;28;20049;-71
2022/05/16 03:17:38;;;;;;;119.95;109.45;;;14.70;72.50;;;;;;5033890;28;20058;-71
2022/05/16 03:20:07;;;;;;;119.75;109.13;;;14.70;72.50;;;;;;5037209;28;20543;-71
2022/05/16 03:22:35;;;;;;;119.78;109.10;;;14.60;72.60;;;;;;5020574;28;20523;-71
2022/05/16 03:25:03;;;;;;;118.95;108.55;;;14.60;72.70;;;;;;5036873;28;20053;-71
2022/05/16 03:27:30;;;;;;;119.22;108.75;;;14.60;72.90;;;;;;5054687;28;20057;-71
2022/05/16 03:29:57;;;;;;;118.78;108.18;;;14.60;73.20;;;;;;5036953;28;20041;-71
2022/05/16 03:32:24;;;;;;;118.22;107.57;;;14.50;73.10;;;;;;5054433;28;20506;-71
2022/05/16 03:34:52;;;;;;;119.32;108.50;;;14.50;73.20;;;;;;5054260;28;20057;-71
2022/05/16 03:37:20;;;;;;;118.80;108.20;;;14.50;73.30;;;;;;5036270;28;20045;-71
2022/05/16 03:42:33;;;;;;;117.30;106.72;;;14.40;73.50;;;;;;5036688;28;20056;-71
2022/05/16 03:45:00;;;;;;;116.85;106.47;;;14.50;73.50;;;;;;5037117;28;20053;-71
2022/05/16 03:47:27;;;;;;;116.82;106.45;;;14.50;73.50;;;;;;5036006;28;20128;-71
2022/05/16 03:49:54;;;;;;;116.28;106.00;;;14.50;73.50;;;;;;5036498;28;20044;-71
2022/05/16 03:52:21;;;;;;;115.03;104.93;;;14.40;73.50;;;;;;5036085;28;20578;-71
2022/05/16 03:54:49;;;;;;;116.57;106.00;;;14.40;73.70;;;;;;5036715;28;20050;-71
2022/05/16 03:57:16;;;;;;;118.43;107.97;;;14.40;73.60;;;;;;5036259;28;20049;-71
2022/05/16 03:59:43;;;;;;;116.05;105.65;;;14.40;73.60;;;;;;5036621;28;20054;-71
2022/05/16 04:02:10;;;;;;;116.78;106.57;;;14.40;73.60;;;;;;5054545;28;20049;-71
2022/05/16 04:04:37;;;;;;;116.20;105.80;;;14.40;73.50;;;;;;5036644;28;20449;-71
2022/05/16 04:07:04;;;;;;;118.90;108.10;;;14.40;73.80;;;;;;5036282;28;20143;-71
2022/05/16 04:09:31;;;;;;;114.63;104.53;;;14.40;73.80;;;;;;5054019;28;20141;-71
2022/05/16 04:12:00;;;;;;;118.55;107.63;;;14.40;74.00;;;;;;5036425;28;20052;-71
2022/05/16 04:14:27;;;;;;;117.90;107.60;;;14.40;74.00;;;;;;5036156;28;20129;-71
2022/05/16 04:16:54;;;;;;;116.88;106.43;;;14.30;74.20;;;;;;5036022;28;20140;-71
2022/05/16 04:19:20;;;;;;;188.60;111.55;;;14.30;74.20;;;;;;5035936;28;20533;-71
2022/05/16 04:21:47;;;;;;;115.63;105.40;;;14.30;74.40;;;;;;5053939;28;20053;-71
2022/05/16 04:24:15;;;;;;;115.15;104.85;;;14.30;74.50;;;;;;5036373;28;20049;-71
2022/05/16 04:26:42;;;;;;;116.05;105.65;;;14.30;74.70;;;;;;5036239;28;20060;-71
2022/05/16 04:29:11;;;;;;;115.32;105.07;;;14.30;74.80;;;;;;5052660;28;20052;-71
2022/05/16 04:31:38;;;;;;;114.50;103.97;;;14.30;75.10;;;;;;5035952;28;20056;-71
2022/05/16 04:34:09;;;;;;;115.47;105.15;;;14.30;75.00;;;;;;5019755;28;20136;-71
2022/05/16 04:36:36;;;;;;;114.72;104.55;;;14.30;75.00;;;;;;5054212;28;20124;-71
2022/05/16 04:39:04;;;;;;;115.93;105.65;;;14.30;75.10;;;;;;5053594;28;20050;-71
2022/05/16 04:44:17;;;;;;;114.50;104.47;;;14.30;75.30;;;;;;5035731;28;20052;-71
2022/05/16 04:46:44;;;;;;;114.32;104.22;;;14.30;75.50;;;;;;5035820;28;20045;-71
2022/05/16 04:49:11;;;;;;;114.75;104.30;;;14.30;75.70;;;;;;5019345;28;20057;-72
2022/05/16 04:51:39;;;;;;;115.13;104.93;;;14.30;75.90;;;;;;5053323;28;20515;-71
2022/05/16 04:54:06;;;;;;;115.10;105.05;;;14.30;76.30;;;;;;5029590;28;20563;-71
2022/05/16 04:56:33;;;;;;;114.38;104.15;;;14.20;76.10;;;;;;5023655;28;21158;-71
2022/05/16 04:59:01;;;;;;;130.05;106.57;;;14.20;76.30;;;;;;5021804;28;20057;-71
2022/05/16 05:01:29;;;;;;;114.05;103.88;;;14.30;76.50;;;;;;5005752;28;20053;-71
2022/05/16 05:03:56;;;;;;;114.78;104.47;;;14.20;76.50;;;;;;5023940;28;20565;-71
2022/05/16 05:06:23;;;;;;;115.85;105.45;;;14.20;76.90;;;;;;5025636;28;20549;-71
2022/05/16 05:08:50;;;;;;;113.53;103.43;;;14.20;77.00;;;;;;5005137;28;20045;-71
2022/05/16 05:16:48;;;;;;;113.32;103.13;;;14.20;78.00;;;;;;4990497;28;20070;-70
2022/05/16 05:19:15;;;;;;;114.15;104.05;;;14.20;78.40;;;;;;5026567;28;20054;-71
2022/05/16 05:21:42;;;;;;;113.82;103.78;;;14.30;78.70;;;;;;5015235;28;20045;-71
2022/05/16 05:24:09;;;;;;;114.72;104.22;;;14.30;78.70;;;;;;5015139;28;20570;-71
2022/05/16 05:26:39;;;;;;;115.72;105.13;;;14.30;79.10;;;;;;4995649;28;20050;-71
2022/05/16 05:29:06;;;;;;;116.97;106.80;;;14.30;79.50;;;;;;5023245;28;20058;-71
2022/05/16 05:31:33;;;;;;;116.82;106.60;;;14.40;79.60;;;;;;5011603;28;20060;-70
2022/05/16 05:34:02;;;;;;;116.38;105.90;;;14.40;79.70;;;;;;5029160;28;20053;-71
2022/05/16 05:36:29;;;;;;;116.30;105.68;;;14.40;79.70;;;;;;4999378;28;20055;-71
2022/05/16 05:38:57;;;;;;;199.32;109.07;;;14.40;79.80;;;;;;4996892;28;20051;-71
2022/05/16 05:41:25;;;;;;;116.68;106.20;;;14.50;80.10;;;;;;4997060;28;20578;-71
2022/05/16 05:43:52;;;;;;;113.93;104.00;;;14.50;80.10;;;;;;5008959;28;20050;-71
2022/05/16 05:46:19;;;;;;;133.00;105.53;;;14.50;80.20;;;;;;5010957;28;20519;-71
2022/05/16 05:48:47;;;;;;;114.07;103.68;;;14.60;80.40;;;;;;5027672;28;20548;-71
2022/05/16 05:51:15;;;;;;;115.72;105.63;;;14.70;80.80;;;;;;5011076;28;20455;-71
2022/05/16 05:53:43;;;;;;;114.72;104.68;;;14.70;81.00;;;;;;5028266;28;20061;-71
2022/05/16 05:56:11;;;;;;;114.60;104.43;;;14.70;80.90;;;;;;5022084;28;20112;-71
2022/05/16 05:58:39;;;;;;;114.35;104.38;;;14.80;81.00;;;;;;4987834;28;20056;-71
2022/05/16 06:01:08;;;;;;;114.22;104.30;;;14.90;81.00;;;;;;5022785;28;20508;-71
2022/05/16 06:03:35;;;;;;;114.60;104.75;;;14.90;80.70;;;;;;5030114;28;20392;-71
2022/05/16 06:06:03;;;;;;;115.45;105.35;;;14.90;80.60;;;;;;5028682;28;20054;-71
2022/05/16 06:08:31;;;;;;;116.60;104.13;;;15.00;80.80;;;;;;5004183;28;20145;-72
2022/05/16 06:10:58;;;;;;;114.88;105.05;;;15.00;80.20;;;;;;5004042;28;20050;-71
2022/05/16 06:13:25;;;;;;;116.35;106.00;;;15.00;80.00;;;;;;5010289;28;20046;-72
2022/05/16 06:15:52;;;;;;;115.63;105.72;;;15.00;80.00;;;;;;5029597;28;20142;-71
2022/05/16 06:18:18;;;;;;;116.15;106.15;;;15.10;80.10;;;;;;5004362;28;20052;-71
2022/05/16 06:20:45;;;;;;;116.78;106.57;;;15.10;80.00;;;;;;5019923;28;20081;-71
2022/05/16 06:23:12;;;;;;;116.65;106.57;;;15.20;80.00;;;;;;5018913;28;20086;-73
2022/05/16 06:25:42;;;;;;;115.97;105.90;;;15.20;80.00;;;;;;4994788;28;20504;-73
2022/05/16 06:28:11;;;;;;;120.43;109.88;;;15.30;80.10;;;;;;5015613;28;20108;-73
2022/05/16 06:30:41;;;;;;;119.93;109.43;;;15.30;79.80;;;;;;5012036;28;20050;-72
2022/05/16 06:33:08;;;;;;;118.38;107.93;;;15.40;79.90;;;;;;5014110;28;20107;-72
2022/05/16 06:35:37;;;;;;;117.50;107.53;;;15.50;80.10;;;;;;5034275;28;20093;-72
2022/05/16 06:38:09;;;;;;;119.38;108.68;;;15.50;80.00;;;;;;5017695;28;20057;-72
2022/05/16 06:40:36;;;;;;;116.88;106.10;;;15.60;80.10;;;;;;5032240;28;20061;-72
2022/05/16 06:43:05;;;;;;;114.55;104.90;;;15.60;79.80;;;;;;5034502;28;20046;-71
2022/05/16 06:45:32;;;;;;;118.15;107.40;;;15.60;79.90;;;;;;5034100;28;20048;-72
2022/05/16 06:48:01;;;;;;;120.70;109.95;;;15.70;80.10;;;;;;5027340;28;20556;-72
2022/05/16 06:50:29;;;;;;;119.35;108.78;;;15.80;80.10;;;;;;5006484;28;20066;-71
2022/05/16 06:52:56;;;;;;;122.18;109.05;;;15.90;80.10;;;;;;5006335;28;20579;-72
2022/05/16 06:55:23;;;;;;;118.22;107.85;;;15.90;79.90;;;;;;5015649;28;20053;-72
2022/05/16 06:57:50;;;;;;;119.53;108.80;;;16.00;79.80;;;;;;5027172;28;20081;-71
2022/05/16 07:00:19;;;;;;;118.82;107.80;;;16.10;80.20;;;;;;5010438;28;20140;-72
2022/05/16 07:02:46;;;;;;;118.45;107.97;;;16.20;80.30;;;;;;5014729;28;20125;-72
2022/05/16 07:05:13;;;;;;;118.53;108.25;;;16.30;80.10;;;;;;5023169;28;20050;-72
2022/05/16 07:07:40;;;;;;;118.55;108.18;;;16.40;79.70;;;;;;5029982;28;20527;-72
2022/05/16 07:10:08;;;;;;;117.65;107.20;;;16.50;79.80;;;;;;5015238;28;20531;-72
2022/05/16 07:12:35;;;;;;;118.95;108.55;;;16.60;79.50;;;;;;5016584;28;20496;-72
2022/05/16 07:15:02;;;;;;;120.28;109.55;;;16.70;79.10;;;;;;5035996;28;20053;-72
2022/05/16 07:17:30;;;;;;;119.38;108.82;;;16.80;78.80;;;;;;5029237;28;20080;-72
2022/05/16 07:19:57;;;;;;;116.80;106.38;;;16.90;78.50;;;;;;5009083;28;20508;-72
2022/05/16 07:22:25;;;;;;;118.13;107.65;;;16.90;78.40;;;;;;5019104;28;20124;-72
2022/05/16 07:24:55;;;;;;;118.38;108.20;;;17.00;78.30;;;;;;5024276;28;20101;-72
2022/05/16 07:30:10;;;;;;;118.32;108.03;;;17.20;77.40;;;;;;5009287;28;20124;-72
2022/05/16 07:32:41;;;;;;;118.47;107.80;;;17.30;77.10;;;;;;5015744;28;20518;-72
2022/05/16 07:35:10;;;;;;;121.88;110.32;;;17.40;76.60;;;;;;5013231;28;20050;-72
2022/05/16 07:37:37;;;;;;;120.70;110.40;;;17.50;76.90;;;;;;4999990;28;20050;-72
2022/05/16 07:40:07;;;;;;;122.70;112.25;;;17.60;76.90;;;;;;5013530;28;20057;-72
2022/05/16 07:42:34;;;;;;;122.68;112.32;;;17.70;76.10;;;;;;4997594;28;20050;-71
2022/05/16 07:45:02;;;;;;;125.35;114.82;;;17.80;75.60;;;;;;5002583;28;20054;-72
2022/05/16 07:47:30;;;;;;;238.93;122.22;;;17.90;75.50;;;;;;5014290;28;20053;-72
2022/05/16 07:49:58;;;;;;;120.80;110.38;;;18.00;75.30;;;;;;5017500;28;20058;-72
2022/05/16 07:52:25;;;;;;;121.43;110.90;;;18.10;74.90;;;;;;5025004;28;20140;-72
2022/05/16 07:54:53;;;;;;;121.18;110.90;;;18.20;74.50;;;;;;5024519;28;20054;-72
2022/05/16 07:57:20;;;;;;;121.63;111.55;;;18.30;73.90;;;;;;5006903;28;20042;-72
2022/05/16 07:59:47;;;;;;;122.25;111.97;;;18.40;73.70;;;;;;4999331;28;20054;-72
2022/05/16 08:02:15;;;;;;;121.00;110.70;;;18.50;73.10;;;;;;5002766;28;20072;-72
2022/05/16 08:04:42;;;;;;;123.75;113.15;;;18.60;72.60;;;;;;5014556;28;20177;-72
2022/05/16 08:07:10;;;;;;;124.43;113.60;;;18.70;72.40;;;;;;5015094;28;20412;-72
2022/05/16 08:12:26;;;;;;;124.88;114.38;;;18.90;72.20;;;;;;5015661;28;20180;-72
2022/05/16 08:14:53;;;;;;;123.60;113.47;;;18.90;72.10;;;;;;5012750;28;20487;-73
2022/05/16 08:17:21;;;;;;;124.65;114.40;;;19.10;71.50;;;;;;5015095;28;20851;-72
2022/05/16 08:19:48;;;;;;;123.13;112.85;;;19.10;71.50;;;;;;5022796;28;20062;-73
2022/05/16 08:22:17;;;;;;;124.78;114.50;;;19.20;71.40;;;;;;4992489;28;20078;-73
2022/05/16 08:24:44;;;;;;;125.43;115.03;;;19.30;71.50;;;;;;5014528;28;20050;-73
2022/05/16 08:27:11;;;;;;;126.15;115.95;;;19.30;71.20;;;;;;5010003;28;20047;-73
2022/05/16 08:29:39;;;;;;;123.32;113.03;;;19.40;71.30;;;;;;5015414;28;20133;-73
2022/05/16 08:32:07;;;;;;;124.28;114.22;;;19.50;71.10;;;;;;5016432;28;20049;-73
2022/05/16 08:34:34;;;;;;;123.28;113.18;;;19.50;71.00;;;;;;5015985;28;20056;-74
2022/05/16 08:39:52;;;;;;;123.15;113.40;;;19.70;70.40;;;;;;5030906;28;20049;-74
2022/05/16 08:42:24;;;;;;;123.78;113.97;;;19.80;70.70;;;;;;5016254;28;20054;-73
2022/05/16 08:44:59;;;;;;;123.97;113.80;;;19.90;70.60;;;;;;5019518;28;20594;-73
2022/05/16 08:47:41;;;;;;;125.97;115.68;;;20.00;69.90;;;;;;5032472;28;20501;-72
2022/05/16 08:50:13;;;;;;;124.30;114.40;;;20.10;70.00;;;;;;5015390;28;20050;-73
2022/05/16 08:52:46;;;;;;;126.10;115.93;;;20.20;69.60;;;;;;5015324;28;20084;-73
2022/05/16 08:55:25;;;;;;;126.75;116.65;;;20.30;69.30;;;;;;5027848;28;20053;-73
2022/05/16 08:57:56;;;;;;;125.13;115.07;;;20.40;69.40;;;;;;5020418;28;20057;-73
2022/05/16 09:00:31;;;;;;;127.40;117.28;;;20.60;69.20;;;;;;5037383;28;20050;-72
2022/05/16 09:02:59;;;;;;;128.02;117.95;;;20.70;68.60;;;;;;5019160;28;20060;-72
2022/05/16 09:05:33;;;;;;;128.55;118.32;;;20.80;67.40;;;;;;5032980;28;20594;-74
2022/05/16 09:08:01;;;;;;;128.05;117.95;;;20.90;66.50;;;;;;5011575;28;20137;-72
2022/05/16 09:10:44;;;;;;;128.07;117.63;;;21.00;67.20;;;;;;5007165;28;20193;-74
2022/05/16 09:13:23;;;;;;;129.52;119.40;;;21.10;67.20;;;;;;5010565;28;20049;-73
2022/05/16 09:16:02;;;;;;;131.23;119.80;;;21.20;66.20;;;;;;5027683;28;20045;-73
2022/05/16 09:18:35;;;;;;;131.23;120.90;;;21.30;66.00;;;;;;5011010;28;20539;-73
2022/05/16 09:21:11;;;;;;;132.00;118.75;;;21.40;65.70;;;;;;5026348;28;20133;-72
2022/05/16 09:23:52;;;;;;;130.68;119.93;;;21.40;65.70;;;;;;5008643;28;20127;-72
2022/05/16 09:26:35;;;;;;;128.52;118.05;;;21.50;66.20;;;;;;5023121;28;20518;-73
2022/05/16 09:29:12;;;;;;;130.70;120.47;;;21.60;66.40;;;;;;5027642;28;20054;-73
2022/05/16 09:31:43;;;;;;;132.13;120.00;;;21.70;65.60;;;;;;5030081;28;20085;-73
2022/05/16 09:34:10;;;;;;;128.93;119.15;;;21.80;65.20;;;;;;5007931;28;20112;-72
2022/05/16 09:36:40;;;;;;;130.88;120.45;;;21.90;65.40;;;;;;5021606;28;20056;-72
2022/05/16 09:39:10;;;;;;;131.25;120.50;;;22.00;64.90;;;;;;5005813;28;20053;-73
2022/05/16 09:41:44;;;;;;;134.10;123.72;;;22.10;64.80;;;;;;5005563;28;20041;-73
2022/05/16 09:44:19;;;;;;;133.15;122.93;;;22.20;64.20;;;;;;5024055;28;20061;-73
2022/05/16 09:46:46;;;;;;;131.23;121.43;;;22.30;64.60;;;;;;5021669;28;20514;-72
2022/05/16 09:49:20;;;;;;;135.43;125.10;;;22.40;65.10;;;;;;5009824;28;20088;-72
2022/05/16 09:51:51;;;;;;;131.45;121.30;;;22.50;65.30;;;;;;5016259;28;20142;-73
2022/05/16 09:54:26;;;;;;;132.15;121.93;;;22.70;65.00;;;;;;5010447;28;20112;-73
2022/05/16 09:57:12;;;;;;;132.45;122.15;;;22.80;64.40;;;;;;5005037;28;20046;-73
2022/05/16 09:59:44;;;;;;;131.25;121.55;;;23.00;63.10;;;;;;5005117;28;20108;-73
2022/05/16 10:02:15;;;;;;;131.73;121.30;;;23.10;62.00;;;;;;5007505;28;20049;-73
2022/05/16 10:04:44;;;;;;;135.57;125.55;;;23.10;61.60;;;;;;5005377;28;20536;-73
2022/05/16 10:07:12;;;;;;;136.13;125.43;;;23.20;62.20;;;;;;5028204;28;20077;-73
2022/05/16 10:09:46;;;;;;;136.95;126.55;;;23.30;61.70;;;;;;5023606;28;20060;-73
2022/05/16 10:12:18;;;;;;;133.20;123.28;;;23.30;62.00;;;;;;5005609;28;20108;-73
2022/05/16 10:14:46;;;;;;;133.88;124.35;;;23.40;61.50;;;;;;5003156;28;20142;-72
2022/05/16 10:17:18;;;;;;;140.80;128.75;;;23.50;61.10;;;;;;5007817;28;20048;-75
2022/05/16 10:19:45;;;;;;;133.60;123.85;;;23.60;61.50;;;;;;5009373;28;20077;-75
2022/05/16 10:22:19;;;;;;;137.38;127.25;;;23.70;59.50;;;;;;5030633;28;20075;-76
2022/05/16 10:24:52;;;;;;;132.70;122.80;;;23.70;59.50;;;;;;5041355;23;20054;-76
2022/05/16 10:27:28;;;;;;;132.07;121.82;;;23.80;60.30;;;;;;4991530;28;20107;-76
2022/05/16 10:29:57;;;;;;;134.10;123.93;;;23.80;59.10;;;;;;4986791;28;20062;-76
2022/05/16 10:35:22;;;;;;;132.00;122.07;;;23.90;59.00;;;;;;4984135;28;20535;-76
2022/05/16 10:37:52;;;;;;;131.68;121.25;;;24.00;58.80;;;;;;4983553;28;20046;-76
2022/05/16 10:40:27;;;;;;;130.45;120.47;;;23.90;58.50;;;;;;4989010;28;20485;-76
2022/05/16 10:43:09;;;;;;;130.73;120.18;;;23.90;58.30;;;;;;5004930;28;20083;-76
2022/05/16 10:45:38;;;;;;;129.93;119.72;;;23.90;58.00;;;;;;4980923;28;20501;-76
2022/05/16 10:48:15;;;;;;;129.85;119.80;;;23.90;58.70;;;;;;4991156;28;20053;-76
2022/05/16 10:50:47;;;;;;;128.48;118.88;;;23.90;58.20;;;;;;5003356;28;20103;-76
2022/05/16 10:53:21;;;;;;;126.68;116.97;;;23.90;57.70;;;;;;4989195;28;20169;-76
2022/05/16 10:55:59;;;;;;;131.07;120.38;;;23.90;57.50;;;;;;4978517;28;20081;-76
2022/05/16 10:58:41;;;;;;;129.35;119.15;;;23.90;57.40;;;;;;4988951;28;20570;-76
2022/05/16 11:01:13;;;;;;;127.60;117.88;;;23.90;58.30;;;;;;4986119;28;20049;-76
2022/05/16 11:03:59;;;;;;;131.27;120.93;;;23.90;58.50;;;;;;5003934;28;20050;-76
2022/05/16 11:06:45;;;;;;;130.05;119.88;;;23.90;59.00;;;;;;4980243;28;20138;-76
2022/05/16 11:09:18;;;;;;;132.90;122.07;;;23.80;59.80;;;;;;5003781;28;20061;-76
2022/05/16 11:11:55;;;;;;;129.07;118.68;;;23.80;60.30;;;;;;4986540;28;20054;-75
2022/05/16 11:14:33;;;;;;;129.18;118.97;;;23.70;60.80;;;;;;4997199;28;20074;-73
2022/05/16 11:17:08;;;;;;;136.60;125.80;;;23.70;61.30;;;;;;5011098;28;20060;-72
2022/05/16 11:19:46;;;;;;;134.77;124.35;;;23.70;61.30;;;;;;4999581;28;20121;-72
2022/05/16 11:22:17;;;;;;;132.38;122.22;;;23.60;61.90;;;;;;4982250;28;20047;-72
2022/05/16 11:24:50;;;;;;;133.63;123.22;;;23.60;62.40;;;;;;4984973;28;20523;-72
2022/05/16 11:27:27;;;;;;;133.55;123.20;;;23.60;62.80;;;;;;5006095;28;20622;-71
2022/05/16 11:30:06;;;;;;;135.63;125.20;;;23.60;62.70;;;;;;4988761;28;20468;-72
2022/05/16 11:32:45;;;;;;;133.75;123.45;;;23.50;63.40;;;;;;4992184;28;20057;-72
2022/05/16 11:35:17;;;;;;;132.05;122.28;;;23.60;64.10;;;;;;5004745;28;20559;-72
2022/05/16 11:38:01;;;;;;;132.18;121.70;;;23.60;64.50;;;;;;5010304;28;20054;-72
2022/05/16 11:40:35;;;;;;;132.60;122.07;;;23.50;64.60;;;;;;5012067;28;20209;-72
2022/05/16 11:43:09;;;;;;;;;;;23.50;64.90;;;;;;4996462;28;20055;-72
2022/05/16 11:46:05;;;;;;;130.57;120.65;;;23.50;64.50;;;;;;4989483;28;19976;-72
2022/05/16 11:48:40;;;;;;;131.10;121.05;;;23.50;63.70;;;;;;4993183;28;20046;-72
2022/05/16 11:51:15;;;;;;;131.50;121.32;;;23.50;63.40;;;;;;4995904;28;20054;-72
2022/05/16 11:53:47;;;;;;;130.93;120.72;;;23.60;63.50;;;;;;4977579;28;20161;-75
2022/05/16 12:02:12;;;;;;;130.02;120.10;;;23.50;63.00;;;;;;4966577;28;20050;-72
2022/05/16 12:04:42;;;;;;;130.15;120.25;;;23.60;62.90;;;;;;4993297;28;20602;-73
2022/05/16 12:07:23;;;;;;;134.25;124.13;;;23.50;62.60;;;;;;4988461;28;20105;-74
2022/05/16 12:10:00;;;;;;;130.93;120.80;;;23.50;63.10;;;;;;4990852;28;20150;-73
2022/05/16 12:12:38;;;;;;;130.48;120.78;;;23.50;62.90;;;;;;4989900;28;20046;-73
2022/05/16 12:15:32;;;;;;;131.45;121.22;;;23.50;63.40;;;;;;4992097;28;20402;-75
2022/05/16 12:18:04;;;;;;;129.75;119.63;;;23.50;62.40;;;;;;4983351;28;20493;-72
2022/05/16 12:20:38;;;;;;;131.40;121.63;;;23.50;62.50;;;;;;4987217;28;20056;-72
2022/05/16 12:23:05;;;;;;;131.73;121.82;;;23.50;62.70;;;;;;5004728;28;20061;-72
2022/05/16 12:25:35;;;;;;;131.77;121.93;;;23.50;62.70;;;;;;4971080;28;20042;-73
2022/05/16 12:28:23;;;;;;;133.15;123.10;;;23.50;62.80;;;;;;5003862;28;20054;-73
2022/05/16 12:30:53;;;;;;;134.60;123.90;;;23.50;63.30;;;;;;5005589;28;20059;-72
2022/05/16 12:33:51;;;;;;;135.57;125.57;;;23.50;63.10;;;;;;4991644;28;20046;-72
2022/05/16 12:36:21;;;;;;;134.82;124.82;;;23.50;62.80;;;;;;5009453;28;20588;-72
2022/05/16 12:38:54;;;;;;;132.45;122.75;;;23.50;62.60;;;;;;5011707;28;20050;-73
2022/05/16 12:41:54;;;;;;;131.60;121.70;;;23.50;64.10;;;;;;5010875;28;20054;-73
2022/05/16 12:44:39;;;;;;;129.55;119.78;;;23.60;63.60;;;;;;4997925;28;20532;-73
2022/05/16 12:47:38;;;;;;;134.20;124.30;;;23.60;63.20;;;;;;5012814;28;20051;-73
2022/05/16 12:50:25;;;;;;;129.93;120.43;;;23.70;62.70;;;;;;4994775;28;20120;-72
2022/05/16 12:53:19;;;;;;;132.73;122.97;;;23.70;62.40;;;;;;4990300;28;20050;-73
2022/05/16 12:56:01;;;;;;;129.70;120.10;;;23.80;62.70;;;;;;4978298;28;20145;-72
2022/05/16 12:58:36;;;;;;;126.53;116.93;;;23.80;62.10;;;;;;4991250;28;20050;-72